Time;durP1;ratioP1;P1;durP2;ratioP2;P2;SDS_P1;SDS_P2;PMS_P1;PMS_P2;Temp;Humidity;BMP_temperature;BMP_pressure;BME280_temperature;BME280_humidity;BME280_pressure;Samples;Min_cycle;Max_cycle;Signal;HPM_P1;HPM_P2
2022/01/03 00:00:45;;;;;;;18.50;9.83;;;20.90;55.90;;;;;;4975976;28;20469;-74
2022/01/03 00:03:13;;;;;;;24.77;10.37;;;21.00;55.90;;;;;;4969352;28;20783;-73
2022/01/03 00:05:39;;;;;;;26.93;11.40;;;20.90;55.90;;;;;;4969158;28;20537;-73
2022/01/03 00:08:05;;;;;;;24.47;10.90;;;20.90;55.90;;;;;;4969580;28;20505;-74
2022/01/03 00:10:33;;;;;;;19.73;9.50;;;20.90;55.90;;;;;;4968082;28;20654;-73
2022/01/03 00:13:00;;;;;;;23.27;10.23;;;20.90;56.00;;;;;;4968742;28;20868;-74
2022/01/03 00:15:26;;;;;;;19.73;9.67;;;20.90;55.90;;;;;;4969166;28;20424;-74
2022/01/03 00:17:53;;;;;;;18.73;9.80;;;20.70;55.80;;;;;;4969041;28;20426;-74
2022/01/03 00:20:21;;;;;;;18.23;8.87;;;20.90;55.90;;;;;;4969240;28;20388;-74
2022/01/03 00:23:06;;;;;;;20.97;9.20;;;20.90;55.90;;;;;;4968075;28;20742;-74
2022/01/03 00:25:36;;;;;;;18.97;9.80;;;20.90;55.90;;;;;;4968568;28;20441;-74
2022/01/03 00:28:14;;;;;;;17.13;8.83;;;21.10;56.00;;;;;;4967030;28;20425;-73
2022/01/03 00:30:42;;;;;;;17.57;9.20;;;20.90;55.90;;;;;;4969601;28;20761;-74
2022/01/03 00:33:08;;;;;;;18.10;9.70;;;20.80;56.20;;;;;;4967939;28;20995;-74
2022/01/03 00:35:42;;;;;;;21.63;9.03;;;20.80;55.80;;;;;;4968812;28;20862;-74
2022/01/03 00:38:10;;;;;;;21.20;10.17;;;20.80;55.90;;;;;;4968525;28;20433;-73
2022/01/03 00:40:36;;;;;;;20.23;8.97;;;21.00;66.30;;;;;;4968521;28;20492;-73
2022/01/03 00:43:04;;;;;;;17.73;8.00;;;20.80;55.90;;;;;;4967373;28;20462;-73
2022/01/03 00:45:29;;;;;;;19.03;8.70;;;20.80;55.70;;;;;;4968113;28;20438;-74
2022/01/03 00:47:56;;;;;;;14.80;7.83;;;21.20;56.00;;;;;;4967551;28;20771;-73
2022/01/03 00:50:23;;;;;;;12.57;7.70;;;20.80;55.60;;;;;;4967429;28;20229;-73
2022/01/03 00:52:50;;;;;;;20.20;8.80;;;20.80;55.60;;;;;;4967636;28;20443;-74
2022/01/03 00:55:17;;;;;;;12.87;7.50;;;20.80;55.60;;;;;;4969438;28;20548;-74
2022/01/03 00:57:56;;;;;;;20.10;9.60;;;20.80;55.50;;;;;;4969280;28;21003;-74
2022/01/03 01:00:22;;;;;;;12.83;8.00;;;20.80;55.60;;;;;;4973846;28;20841;-74
2022/01/03 01:03:00;;;;;;;16.27;7.53;;;20.80;55.60;;;;;;4968745;28;20434;-74
2022/01/03 01:05:27;;;;;;;14.77;7.70;;;20.80;55.50;;;;;;4976475;28;20241;-73
2022/01/03 01:07:56;;;;;;;17.63;7.30;;;21.30;55.70;;;;;;4983812;28;20423;-73
2022/01/03 01:10:25;;;;;;;12.80;7.60;;;21.50;55.80;;;;;;4976575;28;20560;-74
2022/01/03 01:12:52;;;;;;;13.13;7.10;;;20.80;55.40;;;;;;4969110;28;20410;-74
2022/01/03 01:15:18;;;;;;;13.77;7.53;;;21.10;55.60;;;;;;4968553;28;20508;-74
2022/01/03 01:17:43;;;;;;;13.00;7.03;;;21.00;55.50;;;;;;4968582;28;20442;-73
2022/01/03 01:20:09;;;;;;;10.00;6.10;;;20.90;55.40;;;;;;4968895;28;20265;-73
2022/01/03 01:22:36;;;;;;;14.33;6.90;;;20.80;55.40;;;;;;4968854;28;20550;-74
2022/01/03 01:27:50;;;;;;;15.83;7.00;;;20.80;55.30;;;;;;4973077;28;20547;-74
2022/01/03 01:30:18;;;;;;;12.50;7.67;;;20.80;55.30;;;;;;4972984;28;20519;-74
2022/01/03 01:33:11;;;;;;;14.20;7.33;;;20.70;66.80;;;;;;4972189;28;20468;-73
2022/01/03 01:35:46;;;;;;;14.87;6.93;;;20.80;55.30;;;;;;4970702;28;20425;-74
2022/01/03 01:38:17;;;;;;;13.07;6.30;;;20.80;55.30;;;;;;4985731;28;20441;-74
2022/01/03 01:40:47;;;;;;;12.13;6.13;;;20.70;55.20;;;;;;4971444;28;20502;-74
2022/01/03 01:43:14;;;;;;;12.77;7.40;;;20.70;55.20;;;;;;4971566;28;20517;-74
2022/01/03 01:45:42;;;;;;;9.33;6.10;;;20.80;55.30;;;;;;4970117;28;20484;-74
2022/01/03 01:48:12;;;;;;;10.17;6.00;;;20.70;55.20;;;;;;4971968;28;20444;-73
2022/01/03 01:50:40;;;;;;;11.53;6.57;;;20.70;55.30;;;;;;4970824;28;20434;-74
2022/01/03 01:53:06;;;;;;;13.30;6.63;;;20.40;55.00;;;;;;4970702;28;20446;-74
2022/01/03 01:55:31;;;;;;;12.30;6.20;;;20.70;55.20;;;;;;4970627;28;20873;-73
2022/01/03 01:58:05;;;;;;;8.23;5.57;;;20.70;55.20;;;;;;4971677;28;20458;-74
2022/01/03 02:00:33;;;;;;;12.67;5.90;;;20.70;55.10;;;;;;4971794;28;20288;-73
2022/01/03 02:03:11;;;;;;;10.23;5.97;;;20.80;55.20;;;;;;4969710;28;20521;-73
2022/01/03 02:05:39;;;;;;;10.13;6.10;;;20.70;55.10;;;;;;4971774;28;20417;-74
2022/01/03 02:08:17;;;;;;;8.73;5.63;;;20.70;55.10;;;;;;4972041;28;20430;-74
2022/01/03 02:11:07;;;;;;;12.57;6.10;;;20.70;55.10;;;;;;4971836;28;20784;-74
2022/01/03 02:13:33;;;;;;;9.73;5.63;;;20.70;55.10;;;;;;4970498;28;20446;-74
2022/01/03 02:16:03;;;;;;;11.80;5.90;;;20.70;55.10;;;;;;4971425;28;20426;-74
2022/01/03 02:18:30;;;;;;;11.43;6.30;;;21.00;55.20;;;;;;4972579;28;20437;-73
2022/01/03 02:20:56;;;;;;;11.60;5.90;;;20.80;55.10;;;;;;4970975;28;20465;-73
2022/01/03 02:23:22;;;;;;;10.77;6.00;;;20.70;55.50;;;;;;4971148;28;20949;-74
2022/01/03 02:25:48;;;;;;;8.47;4.70;;;20.70;55.10;;;;;;4971404;28;20465;-74
2022/01/03 02:28:13;;;;;;;10.40;5.77;;;20.70;55.10;;;;;;4971964;28;20186;-74
2022/01/03 02:30:39;;;;;;;10.37;5.80;;;20.70;55.10;;;;;;4971390;28;20457;-74
2022/01/03 02:33:06;;;;;;;11.33;5.47;;;20.70;55.10;;;;;;4971515;28;20190;-74
2022/01/03 02:35:38;;;;;;;8.90;4.83;;;20.70;55.10;;;;;;4970994;28;20249;-74
2022/01/03 02:38:04;;;;;;;9.50;5.53;;;20.70;55.00;;;;;;4971210;28;20445;-74
2022/01/03 02:40:30;;;;;;;10.43;5.60;;;20.80;55.10;;;;;;4971130;28;20484;-73
2022/01/03 02:42:56;;;;;;;7.77;4.90;;;20.70;55.00;;;;;;4971340;28;20510;-73
2022/01/03 02:45:24;;;;;;;8.10;4.90;;;20.70;55.00;;;;;;4971413;28;20182;-74
2022/01/03 02:47:56;;;;;;;6.77;4.80;;;20.80;55.10;;;;;;4970760;28;20189;-74
2022/01/03 02:50:23;;;;;;;8.63;4.87;;;20.70;55.00;;;;;;4970072;28;20877;-74
2022/01/03 02:52:49;;;;;;;6.67;4.77;;;20.70;55.00;;;;;;4970659;28;20519;-74
2022/01/03 02:55:16;;;;;;;9.07;5.20;;;20.70;55.10;;;;;;4969225;28;20429;-74
2022/01/03 02:57:44;;;;;;;9.70;4.87;;;20.70;55.00;;;;;;4970682;28;20191;-74
2022/01/03 03:00:13;;;;;;;6.90;5.03;;;20.70;55.00;;;;;;4970460;28;20649;-74
2022/01/03 03:02:38;;;;;;;9.90;5.10;;;20.70;55.00;;;;;;4969398;28;20419;-74
2022/01/03 03:05:06;;;;;;;6.90;4.90;;;20.70;55.10;;;;;;4970901;28;20418;-74
2022/01/03 03:07:32;;;;;;;7.50;4.33;;;20.70;55.00;;;;;;4983906;28;20248;-74
2022/01/03 03:09:59;;;;;;;6.93;4.63;;;20.70;55.00;;;;;;4969718;28;21181;-74
2022/01/03 03:12:26;;;;;;;8.80;4.90;;;20.80;55.00;;;;;;4970246;28;20444;-73
2022/01/03 03:14:51;;;;;;;9.10;5.00;;;20.70;55.00;;;;;;4971926;28;20422;-74
2022/01/03 03:17:18;;;;;;;8.27;4.70;;;20.80;55.10;;;;;;4970574;28;20488;-73
2022/01/03 03:20:04;;;;;;;11.13;5.03;;;20.70;55.00;;;;;;4970079;28;20532;-73
2022/01/03 03:22:31;;;;;;;6.10;4.17;;;21.00;55.20;;;;;;4969179;28;20432;-74
2022/01/03 03:25:16;;;;;;;4.17;3.37;;;20.60;55.00;;;;;;4970530;28;20418;-74
2022/01/03 03:27:44;;;;;;;6.23;4.00;;;20.70;55.10;;;;;;4970230;28;20429;-74
2022/01/03 03:30:26;;;;;;;7.97;4.73;;;20.60;55.00;;;;;;4985221;28;20504;-74
2022/01/03 03:32:54;;;;;;;7.73;4.30;;;20.70;55.10;;;;;;4967650;28;20512;-74
2022/01/03 03:35:21;;;;;;;7.37;4.30;;;20.70;55.10;;;;;;4970154;28;20454;-74
2022/01/03 03:37:46;;;;;;;7.93;4.17;;;20.90;55.20;;;;;;4970648;28;20453;-74
2022/01/03 03:40:13;;;;;;;5.30;3.90;;;20.70;55.10;;;;;;4968577;28;20934;-74
2022/01/03 03:42:41;;;;;;;5.10;4.03;;;20.30;54.90;;;;;;4968438;28;20189;-73
2022/01/03 03:45:08;;;;;;;4.80;4.00;;;20.60;55.10;;;;;;4968217;28;20805;-74
2022/01/03 03:47:34;;;;;;;6.73;4.50;;;20.70;55.10;;;;;;4967439;28;20430;-74
2022/01/03 03:50:00;;;;;;;7.20;4.07;;;20.60;55.00;;;;;;4968838;28;20437;-74
2022/01/03 03:52:26;;;;;;;7.53;4.47;;;20.60;55.00;;;;;;4968188;28;20561;-73
2022/01/03 03:54:51;;;;;;;7.13;5.03;;;20.60;55.10;;;;;;4970259;28;21138;-74
2022/01/03 03:57:17;;;;;;;5.80;4.20;;;20.60;55.10;;;;;;4968308;28;20550;-74
2022/01/03 03:59:43;;;;;;;4.73;4.17;;;20.80;55.20;;;;;;4969011;28;20210;-74
2022/01/03 04:02:08;;;;;;;10.13;4.70;;;20.60;55.10;;;;;;4968817;28;20244;-73
2022/01/03 04:04:34;;;;;;;6.97;4.00;;;20.60;55.10;;;;;;4970015;28;20590;-74
2022/01/03 04:07:00;;;;;;;6.40;3.63;;;20.70;55.10;;;;;;4969729;28;20167;-74
2022/01/03 04:09:26;;;;;;;6.80;3.83;;;19.90;54.80;;;;;;4970284;28;20453;-73
2022/01/03 04:11:52;;;;;;;5.10;3.77;;;21.00;55.30;;;;;;4969051;28;21029;-74
2022/01/03 04:14:18;;;;;;;6.50;3.60;;;20.60;55.10;;;;;;4967640;28;20777;-74
2022/01/03 04:16:44;;;;;;;6.97;4.10;;;20.60;55.10;;;;;;4969757;28;20186;-73
2022/01/03 04:19:10;;;;;;;8.33;4.67;;;20.80;66.00;;;;;;4968095;28;20198;-74
2022/01/03 04:21:37;;;;;;;4.30;3.40;;;20.60;55.10;;;;;;4967809;28;20418;-74
2022/01/03 04:24:04;;;;;;;9.30;3.90;;;20.90;55.30;;;;;;4969366;28;20166;-74
2022/01/03 04:26:30;;;;;;;5.20;3.80;;;20.60;55.20;;;;;;4967010;28;20814;-74
2022/01/03 04:28:56;;;;;;;5.80;4.40;;;20.60;55.30;;;;;;4968546;28;20445;-74
2022/01/03 04:31:21;;;;;;;4.87;3.90;;;20.90;55.40;;;;;;4968838;28;20552;-74
2022/01/03 04:33:47;;;;;;;6.43;4.33;;;20.70;55.30;;;;;;4968520;28;20244;-73
2022/01/03 04:36:12;;;;;;;5.33;4.00;;;20.60;55.30;;;;;;4967556;28;20183;-74
2022/01/03 04:38:38;;;;;;;4.03;3.47;;;20.60;55.20;;;;;;4969477;28;20167;-74
2022/01/03 04:41:04;;;;;;;7.20;4.47;;;20.60;55.30;;;;;;4969075;28;20501;-74
2022/01/03 04:43:30;;;;;;;3.87;3.10;;;20.60;55.30;;;;;;4983658;28;20568;-74
2022/01/03 04:45:56;;;;;;;5.53;4.00;;;20.60;55.30;;;;;;4968152;28;20430;-74
2022/01/03 04:48:23;;;;;;;3.80;3.40;;;20.60;55.30;;;;;;4969424;28;20527;-74
2022/01/03 04:50:49;;;;;;;8.97;4.93;;;20.60;55.30;;;;;;4967847;28;20650;-74
2022/01/03 04:53:15;;;;;;;3.97;3.13;;;20.60;55.30;;;;;;4968908;28;20922;-74
2022/01/03 04:55:41;;;;;;;5.53;4.10;;;20.90;55.50;;;;;;4968573;28;20430;-74
2022/01/03 04:58:08;;;;;;;8.30;4.13;;;20.60;55.30;;;;;;4969489;28;20517;-74
2022/01/03 05:00:34;;;;;;;5.77;3.67;;;20.60;55.40;;;;;;4987343;28;20210;-72
2022/01/03 05:03:00;;;;;;;5.17;3.63;;;20.60;55.30;;;;;;4980079;28;20420;-74
2022/01/03 05:05:25;;;;;;;7.03;3.70;;;20.60;55.40;;;;;;4983059;28;20541;-74
2022/01/03 05:07:51;;;;;;;3.97;3.57;;;20.70;55.50;;;;;;4983193;28;20182;-74
2022/01/03 05:10:17;;;;;;;5.03;3.37;;;20.80;55.50;;;;;;4978247;28;20202;-74
2022/01/03 05:12:42;;;;;;;5.33;3.90;;;20.60;55.40;;;;;;4982252;28;20182;-74
2022/01/03 05:15:08;;;;;;;7.07;3.83;;;20.50;55.40;;;;;;4982858;28;20208;-74
2022/01/03 05:17:33;;;;;;;6.13;3.77;;;20.60;55.40;;;;;;4972883;28;20225;-74
2022/01/03 05:19:59;;;;;;;4.50;3.17;;;20.60;55.50;;;;;;4972833;28;20307;-74
2022/01/03 05:22:25;;;;;;;6.57;3.70;;;20.60;55.50;;;;;;4972783;28;20361;-73
2022/01/03 05:24:50;;;;;;;3.73;3.20;;;21.80;56.00;;;;;;4973030;28;20178;-73
2022/01/03 05:27:16;;;;;;;5.03;3.70;;;20.60;55.50;;;;;;4971935;28;20190;-74
2022/01/03 05:29:41;;;;;;;4.90;3.13;;;20.60;55.50;;;;;;4972543;28;20215;-73
2022/01/03 05:32:07;;;;;;;4.33;3.67;;;20.50;55.50;;;;;;4972858;28;20246;-73
2022/01/03 05:34:33;;;;;;;10.10;3.87;;;20.60;55.50;;;;;;4972822;28;20187;-74
2022/01/03 05:36:58;;;;;;;4.77;3.23;;;20.60;55.50;;;;;;4971132;28;20201;-74
2022/01/03 05:39:24;;;;;;;7.80;2.80;;;20.50;55.40;;;;;;4972219;28;20226;-74
2022/01/03 05:41:50;;;;;;;4.50;3.07;;;20.60;55.50;;;;;;4971801;28;20178;-74
2022/01/03 05:44:15;;;;;;;4.60;3.67;;;20.60;55.50;;;;;;4972738;28;20191;-73
2022/01/03 05:46:41;;;;;;;5.07;3.37;;;20.60;55.50;;;;;;4972145;28;20494;-74
2022/01/03 05:49:08;;;;;;;6.80;3.27;;;20.50;62.40;;;;;;4973059;28;20194;-73
2022/01/03 05:51:33;;;;;;;4.37;3.40;;;21.00;55.80;;;;;;4973459;28;20179;-73
2022/01/03 05:53:59;;;;;;;8.03;3.07;;;20.60;55.60;;;;;;4973273;28;20545;-73
2022/01/03 05:56:25;;;;;;;5.00;3.20;;;20.80;55.70;;;;;;4973288;28;20742;-74
2022/01/03 05:58:51;;;;;;;4.43;3.30;;;20.60;55.60;;;;;;4974284;28;20182;-74
2022/01/03 06:01:21;;;;;;;4.07;3.37;;;20.50;55.60;;;;;;4974382;28;20336;-74
2022/01/03 06:03:46;;;;;;;4.30;3.47;;;20.50;55.60;;;;;;4971757;28;20485;-74
2022/01/03 06:08:37;;;;;;;5.20;3.37;;;20.60;55.60;;;;;;4972361;28;20179;-73
2022/01/03 06:11:04;;;;;;;6.00;3.40;;;20.60;55.70;;;;;;4971003;28;20277;-73
2022/01/03 06:13:30;;;;;;;4.57;3.30;;;20.50;55.60;;;;;;4972718;28;20236;-74
2022/01/03 06:15:55;;;;;;;3.57;3.00;;;20.80;55.90;;;;;;4970260;28;20431;-73
2022/01/03 06:18:22;;;;;;;6.17;3.40;;;20.80;55.80;;;;;;4971910;28;20197;-74
2022/01/03 06:20:49;;;;;;;3.20;2.87;;;20.60;55.70;;;;;;4970767;28;20202;-74
2022/01/03 06:23:17;;;;;;;5.93;3.60;;;20.90;55.80;;;;;;4971062;28;20422;-73
2022/01/03 06:25:43;;;;;;;5.53;3.10;;;20.60;55.70;;;;;;4968709;28;20489;-73
2022/01/03 06:28:09;;;;;;;2.87;2.67;;;20.80;55.80;;;;;;4966831;28;20565;-74
2022/01/03 06:30:36;;;;;;;3.60;3.00;;;20.60;55.70;;;;;;4971492;28;20596;-74
2022/01/03 06:33:02;;;;;;;4.20;3.30;;;20.60;55.70;;;;;;4970116;28;20171;-74
2022/01/03 06:35:28;;;;;;;8.00;2.87;;;20.60;55.70;;;;;;4969765;28;20430;-74
2022/01/03 06:37:54;;;;;;;7.40;3.13;;;20.60;55.70;;;;;;4969985;28;20426;-74
2022/01/03 06:40:19;;;;;;;3.33;2.53;;;20.60;56.00;;;;;;4969355;28;20465;-74
2022/01/03 06:42:45;;;;;;;4.60;3.17;;;20.60;55.70;;;;;;4970589;28;20179;-74
2022/01/03 06:45:11;;;;;;;3.03;2.73;;;20.60;55.70;;;;;;4968783;28;20179;-74
2022/01/03 06:47:36;;;;;;;5.20;3.30;;;20.80;55.80;;;;;;4970194;28;20191;-74
2022/01/03 06:50:03;;;;;;;4.60;3.03;;;20.60;55.70;;;;;;4970654;28;20221;-74
2022/01/03 06:52:29;;;;;;;5.20;3.00;;;20.50;55.60;;;;;;4970850;28;20183;-73
2022/01/03 06:54:55;;;;;;;3.10;2.60;;;20.50;55.60;;;;;;4971510;28;20433;-74
2022/01/03 06:57:21;;;;;;;3.47;3.07;;;20.60;55.70;;;;;;4970634;28;20557;-74
2022/01/03 06:59:47;;;;;;;2.93;2.63;;;20.60;55.70;;;;;;4970385;28;20655;-74
2022/01/03 07:02:12;;;;;;;5.10;3.47;;;20.60;55.80;;;;;;4968862;28;20422;-74
2022/01/03 07:04:38;;;;;;;5.37;2.93;;;20.60;55.80;;;;;;4969259;28;20211;-74
2022/01/03 07:07:04;;;;;;;8.77;3.20;;;20.60;55.70;;;;;;4968899;28;20586;-73
2022/01/03 07:09:30;;;;;;;8.30;3.17;;;20.60;55.70;;;;;;4969901;28;20301;-74
2022/01/03 07:11:55;;;;;;;3.57;2.57;;;20.50;55.80;;;;;;4970178;28;20565;-73
2022/01/03 07:19:35;;;;;;;3.13;2.10;;;20.60;55.70;;;;;;4965228;28;20923;-73
2022/01/03 07:22:04;;;;;;;4.50;2.13;;;20.60;55.60;;;;;;4966761;28;20426;-74
2022/01/03 07:24:31;;;;;;;2.43;2.23;;;20.50;55.40;;;;;;4969925;28;20458;-74
2022/01/03 07:26:59;;;;;;;3.40;2.40;;;20.50;55.40;;;;;;4969392;28;20482;-74
2022/01/03 07:29:25;;;;;;;7.17;2.20;;;20.70;55.50;;;;;;4967128;28;20502;-73
2022/01/03 07:31:50;;;;;;;5.13;2.43;;;20.50;55.40;;;;;;4969324;28;20422;-73
2022/01/03 07:34:16;;;;;;;5.50;1.97;;;20.50;55.50;;;;;;4967439;28;20182;-74
2022/01/03 07:36:42;;;;;;;2.60;1.90;;;20.50;55.50;;;;;;4967633;28;20794;-74
2022/01/03 07:39:08;;;;;;;5.07;2.70;;;;;;;;;;4968685;28;20205;-73
2022/01/03 07:41:33;;;;;;;5.80;2.97;;;20.50;55.10;;;;;;4970157;28;20550;-73
2022/01/03 07:43:59;;;;;;;4.47;2.10;;;20.60;55.60;;;;;;4970874;28;20433;-73
2022/01/03 07:46:24;;;;;;;5.53;2.70;;;20.70;55.70;;;;;;4970241;28;20266;-73
2022/01/03 07:48:50;;;;;;;2.90;1.93;;;20.60;55.70;;;;;;4969814;28;20257;-73
2022/01/03 07:51:15;;;;;;;5.53;2.30;;;20.70;55.90;;;;;;4969617;28;20281;-73
2022/01/03 07:53:44;;;;;;;4.80;2.00;;;20.60;55.90;;;;;;4969856;28;20209;-72
2022/01/03 07:56:10;;;;;;;2.03;1.93;;;20.60;55.90;;;;;;4970237;28;20617;-72
2022/01/03 07:58:37;;;;;;;6.67;2.30;;;20.60;55.90;;;;;;4970714;28;20414;-72
2022/01/03 08:01:04;;;;;;;3.73;2.23;;;20.60;55.80;;;;;;4981215;28;20505;-72
2022/01/03 08:03:29;;;;;;;3.70;2.83;;;20.60;55.80;;;;;;4969722;28;20440;-72
2022/01/03 08:05:55;;;;;;;3.93;1.97;;;20.60;55.80;;;;;;4969921;28;20972;-72
2022/01/03 08:08:21;;;;;;;3.97;2.60;;;20.80;55.80;;;;;;4969952;28;20240;-72
2022/01/03 08:10:47;;;;;;;4.30;2.10;;;20.60;55.70;;;;;;4970100;28;20372;-73
2022/01/03 08:13:14;;;;;;;3.53;2.07;;;20.90;56.00;;;;;;4970111;28;20194;-72
2022/01/03 08:15:40;;;;;;;3.63;1.60;;;20.30;55.60;;;;;;4969288;28;20337;-72
2022/01/03 08:18:06;;;;;;;3.93;2.50;;;20.60;55.70;;;;;;4969780;28;20434;-72
2022/01/03 08:20:32;;;;;;;1.97;1.80;;;20.60;55.70;;;;;;4969818;28;20469;-72
2022/01/03 08:22:57;;;;;;;6.13;2.80;;;20.60;55.80;;;;;;4969764;28;20434;-72
2022/01/03 08:25:23;;;;;;;3.87;2.33;;;20.60;55.80;;;;;;4969330;28;20213;-72
2022/01/03 08:27:49;;;;;;;3.83;2.30;;;20.60;55.80;;;;;;4968387;28;20257;-72
2022/01/03 08:30:15;;;;;;;3.40;2.20;;;20.70;55.90;;;;;;4969012;28;20269;-72
2022/01/03 08:32:40;;;;;;;5.23;2.10;;;20.60;55.90;;;;;;4969897;28;20318;-72
2022/01/03 08:35:06;;;;;;;2.07;1.87;;;20.70;55.90;;;;;;4972279;28;20557;-72
2022/01/03 08:37:32;;;;;;;4.00;2.20;;;20.70;55.90;;;;;;4973528;28;20373;-72
2022/01/03 08:40:03;;;;;;;2.10;1.80;;;20.60;55.90;;;;;;4973482;28;20568;-72
2022/01/03 08:42:30;;;;;;;2.90;2.10;;;20.80;56.10;;;;;;4973335;28;20190;-72
2022/01/03 08:44:56;;;;;;;3.50;2.00;;;20.70;56.00;;;;;;4973826;28;20445;-72
2022/01/03 08:47:22;;;;;;;2.03;1.70;;;20.70;56.10;;;;;;4973148;28;20426;-72
2022/01/03 08:49:48;;;;;;;2.57;1.87;;;20.70;56.00;;;;;;4973275;28;20458;-72
2022/01/03 08:52:13;;;;;;;2.63;1.60;;;20.70;56.20;;;;;;4973152;28;20440;-72
2022/01/03 08:54:39;;;;;;;1.73;1.63;;;20.70;56.10;;;;;;4975827;28;20209;-72
2022/01/03 08:57:04;;;;;;;2.50;1.67;;;20.30;55.90;;;;;;4974086;28;20665;-72
2022/01/03 08:59:30;;;;;;;3.47;1.60;;;20.80;56.20;;;;;;4976428;28;20230;-72
2022/01/03 09:01:56;;;;;;;3.23;2.57;;;20.70;56.10;;;;;;4974176;28;20186;-72
2022/01/03 09:04:22;;;;;;;2.83;2.13;;;;;;;;;;4972918;28;20178;-72
2022/01/03 09:06:51;;;;;;;3.27;1.97;;;21.20;55.90;;;;;;4973079;28;20613;-72
2022/01/03 09:09:18;;;;;;;2.10;1.80;;;20.70;66.50;;;;;;4972967;28;21031;-72
2022/01/03 09:11:43;;;;;;;1.37;1.27;;;20.70;56.10;;;;;;4972825;28;20421;-72
2022/01/03 09:14:09;;;;;;;4.87;1.73;;;20.80;56.10;;;;;;4973247;28;20767;-72
2022/01/03 09:16:34;;;;;;;2.50;1.77;;;20.80;56.10;;;;;;4972793;28;20178;-72
2022/01/03 09:19:00;;;;;;;3.97;1.90;;;;;;;;;;4972728;28;20178;-72
2022/01/03 09:21:26;;;;;;;2.40;1.37;;;20.80;55.60;;;;;;4971154;28;20233;-72
2022/01/03 09:24:05;;;;;;;1.97;1.87;;;20.80;56.20;;;;;;4972322;28;20429;-72
2022/01/03 09:29:17;;;;;;;1.50;1.40;;;20.70;66.50;;;;;;4973009;28;20864;-72
2022/01/03 09:31:43;;;;;;;2.00;1.77;;;20.80;56.20;;;;;;4971453;28;20527;-72
2022/01/03 09:34:09;;;;;;;1.67;1.57;;;20.80;56.10;;;;;;4972392;28;20433;-72
2022/01/03 09:36:35;;;;;;;1.87;1.30;;;20.80;56.20;;;;;;4972609;28;20194;-72
2022/01/03 09:39:02;;;;;;;2.37;1.33;;;21.00;57.00;;;;;;4972549;28;20205;-72
2022/01/03 09:41:31;;;;;;;1.30;1.20;;;21.00;56.40;;;;;;4972362;28;20484;-72
2022/01/03 09:44:04;;;;;;;1.57;1.47;;;20.80;56.20;;;;;;4972328;28;20504;-72
2022/01/03 09:46:38;;;;;;;1.63;1.30;;;20.80;56.20;;;;;;4971450;28;20417;-72
2022/01/03 09:49:11;;;;;;;1.70;1.47;;;20.60;67.10;;;;;;4972560;28;20448;-72
2022/01/03 09:51:38;;;;;;;2.03;1.80;;;20.90;56.20;;;;;;4970716;28;20434;-72
2022/01/03 09:54:11;;;;;;;1.77;1.53;;;20.90;56.20;;;;;;4972727;28;20434;-72
2022/01/03 09:56:38;;;;;;;1.90;1.80;;;20.80;56.20;;;;;;4972420;28;20418;-72
2022/01/03 09:59:05;;;;;;;2.37;1.40;;;20.80;63.70;;;;;;4976639;28;20476;-72
2022/01/03 10:01:31;;;;;;;1.63;1.53;;;21.50;56.50;;;;;;4974996;28;20418;-72
2022/01/03 10:03:57;;;;;;;2.60;2.40;;;21.20;56.30;;;;;;4971516;28;20535;-72
2022/01/03 10:06:26;;;;;;;2.90;1.80;;;20.90;56.20;;;;;;4972405;28;20433;-72
2022/01/03 10:08:52;;;;;;;3.27;2.00;;;21.00;56.20;;;;;;4971370;28;20597;-72
2022/01/03 10:11:19;;;;;;;2.30;1.60;;;20.90;56.20;;;;;;4972007;28;20446;-73
2022/01/03 10:13:45;;;;;;;5.37;1.90;;;21.00;56.30;;;;;;4972211;28;20441;-73
2022/01/03 10:16:11;;;;;;;1.43;1.20;;;20.90;56.20;;;;;;4970677;28;20477;-73
2022/01/03 10:18:37;;;;;;;1.53;1.43;;;20.80;56.10;;;;;;4972003;28;20964;-72
2022/01/03 10:21:04;;;;;;;1.70;1.53;;;20.90;56.20;;;;;;4975396;28;20210;-72
2022/01/03 10:23:30;;;;;;;2.63;1.67;;;20.90;56.20;;;;;;4971697;28;20499;-72
2022/01/03 10:26:19;;;;;;;4.37;1.90;;;20.90;56.20;;;;;;4970861;28;20486;-72
2022/01/03 10:28:45;;;;;;;3.80;1.77;;;20.90;56.20;;;;;;4971452;28;20209;-72
2022/01/03 10:31:19;;;;;;;1.73;1.63;;;20.90;56.30;;;;;;4971390;28;21007;-72
2022/01/03 10:33:45;;;;;;;1.87;1.20;;;21.00;56.20;;;;;;4971680;28;20189;-71
2022/01/03 10:36:27;;;;;;;1.73;1.60;;;21.10;56.40;;;;;;4971402;28;20910;-72
2022/01/03 10:38:53;;;;;;;3.03;1.70;;;21.00;56.30;;;;;;4971420;28;20983;-72
2022/01/03 10:41:21;;;;;;;2.20;2.00;;;21.00;56.20;;;;;;4971126;28;20430;-72
2022/01/03 10:43:49;;;;;;;1.93;1.20;;;20.90;56.50;;;;;;4970990;28;20438;-72
2022/01/03 10:46:19;;;;;;;5.50;1.90;;;21.30;56.40;;;;;;4970656;28;20430;-72
2022/01/03 10:48:45;;;;;;;1.83;1.73;;;21.00;56.20;;;;;;4971520;28;20433;-73
2022/01/03 10:51:10;;;;;;;1.83;1.40;;;21.00;56.40;;;;;;4971791;28;20512;-72
2022/01/03 10:53:41;;;;;;;6.13;1.83;;;20.90;56.50;;;;;;4972018;28;20453;-73
2022/01/03 10:56:27;;;;;;;4.83;2.40;;;21.00;56.80;;;;;;4972359;28;20282;-72
2022/01/03 10:58:53;;;;;;;1.53;1.20;;;21.00;56.90;;;;;;4974594;28;20872;-72
2022/01/03 11:01:23;;;;;;;2.97;1.70;;;21.30;57.10;;;;;;4991450;28;20905;-72
2022/01/03 11:03:50;;;;;;;2.13;1.40;;;20.90;56.80;;;;;;4995800;28;20428;-72
2022/01/03 11:11:38;;;;;;;7.50;2.10;;;21.00;56.90;;;;;;4970485;28;20449;-72
2022/01/03 11:14:05;;;;;;;1.83;1.30;;;21.00;56.80;;;;;;4971622;28;20485;-72
2022/01/03 11:16:36;;;;;;;1.53;1.43;;;21.00;56.80;;;;;;4971225;28;20429;-72
2022/01/03 11:19:02;;;;;;;5.77;1.50;;;20.80;67.00;;;;;;4971110;28;20917;-72
2022/01/03 11:21:30;;;;;;;8.33;1.73;;;21.00;56.70;;;;;;4970839;28;20517;-72
2022/01/03 11:24:13;;;;;;;1.40;1.20;;;21.00;56.70;;;;;;4974208;28;20461;-72
2022/01/03 11:26:47;;;;;;;3.53;1.80;;;21.00;56.70;;;;;;4974073;28;20809;-72
2022/01/03 11:29:14;;;;;;;3.50;1.80;;;20.40;66.80;;;;;;4969487;28;20429;-72
2022/01/03 11:31:40;;;;;;;1.70;1.40;;;21.00;56.60;;;;;;4968816;28;20816;-73
2022/01/03 11:34:12;;;;;;;1.20;1.00;;;21.50;56.90;;;;;;4968506;28;20513;-72
2022/01/03 11:36:39;;;;;;;9.30;1.57;;;21.00;56.50;;;;;;4965623;28;21000;-73
2022/01/03 11:39:10;;;;;;;1.33;1.23;;;20.40;67.30;;;;;;4969102;28;20438;-73
2022/01/03 11:41:38;;;;;;;1.73;1.63;;;21.00;56.50;;;;;;4969459;28;20434;-73
2022/01/03 11:44:05;;;;;;;2.10;1.67;;;21.00;56.50;;;;;;4970936;28;20422;-73
2022/01/03 11:46:30;;;;;;;1.77;1.47;;;21.00;56.50;;;;;;4967139;28;20992;-73
2022/01/03 11:48:57;;;;;;;2.20;1.63;;;21.00;56.50;;;;;;4970524;28;20454;-73
2022/01/03 11:51:23;;;;;;;1.77;1.63;;;21.10;56.50;;;;;;4970391;28;20545;-73
2022/01/03 11:53:50;;;;;;;1.70;1.57;;;21.00;55.90;;;;;;4970046;28;20434;-73
2022/01/03 11:56:22;;;;;;;2.30;1.90;;;21.00;56.40;;;;;;4969904;28;20715;-73
2022/01/03 11:59:07;;;;;;;9.40;1.50;;;21.00;56.40;;;;;;4971644;28;20752;-74
2022/01/03 12:04:27;;;;;;;4.70;1.87;;;21.00;56.40;;;;;;4968617;28;20417;-73
2022/01/03 12:07:05;;;;;;;1.87;1.63;;;21.10;56.40;;;;;;4968669;28;21053;-73
2022/01/03 12:09:32;;;;;;;1.40;1.30;;;21.00;56.30;;;;;;4969220;28;20530;-73
2022/01/03 12:11:58;;;;;;;1.73;1.30;;;21.00;56.30;;;;;;4968063;28;20426;-73
2022/01/03 12:14:45;;;;;;;2.13;1.23;;;21.00;56.30;;;;;;4970280;28;20492;-73
2022/01/03 12:17:13;;;;;;;3.07;1.00;;;21.00;56.30;;;;;;4969105;28;20298;-73
2022/01/03 12:19:47;;;;;;;1.30;1.20;;;21.20;56.40;;;;;;4969116;28;20469;-74
2022/01/03 12:22:23;;;;;;;2.53;1.57;;;21.00;56.30;;;;;;4967376;28;20925;-73
2022/01/03 12:25:02;;;;;;;1.83;1.60;;;21.00;56.30;;;;;;4969577;28;20472;-73
2022/01/03 12:27:33;;;;;;;1.30;1.20;;;21.10;56.40;;;;;;4969140;28;20422;-73
2022/01/03 12:30:02;;;;;;;1.60;1.20;;;21.10;56.40;;;;;;4970268;28;20514;-74
2022/01/03 12:32:40;;;;;;;1.43;1.20;;;21.10;56.40;;;;;;4967918;28;20517;-73
2022/01/03 12:35:20;;;;;;;2.43;1.90;;;21.10;56.40;;;;;;4969251;28;20516;-73
2022/01/03 12:37:55;;;;;;;3.13;1.33;;;21.10;56.40;;;;;;4983139;28;20425;-73
2022/01/03 12:40:30;;;;;;;6.70;1.80;;;21.10;56.40;;;;;;4967041;28;20484;-73
2022/01/03 12:42:56;;;;;;;4.63;1.43;;;21.10;56.40;;;;;;4967760;28;20398;-73
2022/01/03 12:45:32;;;;;;;2.03;1.17;;;21.10;56.50;;;;;;4969586;28;21044;-73
2022/01/03 12:48:14;;;;;;;1.67;1.30;;;21.10;56.50;;;;;;4969118;28;20178;-72
2022/01/03 12:50:52;;;;;;;1.37;1.27;;;21.10;56.50;;;;;;4967095;28;20532;-73
2022/01/03 12:53:27;;;;;;;4.17;2.20;;;21.10;56.60;;;;;;4983363;28;20441;-74
2022/01/03 12:56:28;;;;;;;3.07;1.57;;;21.10;56.60;;;;;;4969720;28;20475;-73
2022/01/03 12:58:56;;;;;;;2.40;1.00;;;21.10;56.70;;;;;;4930001;28;20436;-73
2022/01/03 13:01:29;;;;;;;3.40;1.53;;;21.20;56.90;;;;;;4970279;28;20438;-74
2022/01/03 13:04:00;;;;;;;3.77;2.33;;;21.10;56.80;;;;;;4969254;28;20509;-74
2022/01/03 13:06:32;;;;;;;2.07;1.60;;;21.40;57.00;;;;;;4968635;28;20436;-74
2022/01/03 13:08:58;;;;;;;1.43;1.20;;;21.10;56.90;;;;;;4967205;28;20458;-73
2022/01/03 13:11:45;;;;;;;3.90;1.87;;;21.10;57.00;;;;;;4963889;28;20481;-73